createdAt,value
2023-04-12T00:02:02.049Z,7.02
2023-04-12T00:04:33.632Z,7.00
2023-04-12T00:07:03.663Z,7.01
2023-04-12T00:09:33.234Z,6.97
2023-04-12T00:12:02.830Z,6.96
2023-04-12T00:14:32.345Z,6.94
2023-04-12T00:17:01.948Z,6.94
2023-04-12T00:19:31.504Z,6.93
2023-04-12T00:22:01.551Z,6.92
2023-04-12T00:24:31.085Z,6.90
2023-04-12T00:27:02.220Z,6.87
2023-04-12T00:29:31.955Z,6.86
2023-04-12T00:32:03.660Z,6.86
2023-04-12T00:34:33.101Z,6.83
2023-04-12T00:37:03.392Z,6.80
2023-04-12T00:39:32.648Z,6.81
2023-04-12T00:42:06.533Z,6.79
2023-04-12T00:44:35.854Z,6.79
2023-04-12T00:47:07.006Z,6.79
2023-04-12T00:49:36.550Z,6.78
2023-04-12T00:52:08.606Z,6.78
2023-04-12T00:54:39.894Z,6.78
2023-04-12T00:57:09.578Z,6.78
2023-04-12T00:59:38.993Z,6.78
2023-04-12T01:02:08.683Z,6.76
2023-04-12T01:04:38.721Z,6.76
2023-04-12T01:07:16.365Z,6.74
2023-04-12T01:09:58.111Z,6.77
2023-04-12T01:12:51.939Z,6.77
2023-04-12T01:15:24.174Z,6.74
2023-04-12T01:18:00.671Z,6.76
2023-04-12T01:20:32.889Z,6.78
2023-04-12T01:23:20.418Z,6.77
2023-04-12T01:26:09.533Z,6.78
2023-04-12T01:28:43.830Z,6.83
2023-04-12T01:31:14.390Z,6.81
2023-04-12T01:33:44.814Z,6.85
2023-04-12T01:36:22.747Z,6.84
2023-04-12T01:38:52.260Z,6.90
2023-04-12T01:41:22.198Z,6.86
2023-04-12T01:43:51.510Z,6.85
2023-04-12T01:46:23.974Z,6.87
2023-04-12T01:48:54.946Z,6.87
2023-04-12T01:51:53.130Z,6.86
2023-04-12T01:54:27.094Z,6.85
2023-04-12T01:56:59.079Z,6.81
2023-04-12T01:59:31.464Z,6.80
2023-04-12T02:02:00.872Z,6.79
2023-04-12T02:04:30.901Z,6.78
2023-04-12T02:07:00.400Z,6.78
2023-04-12T02:09:31.608Z,6.79
2023-04-12T02:12:01.130Z,6.81
2023-04-12T02:14:31.549Z,6.80
2023-04-12T02:17:02.606Z,6.80
2023-04-12T02:19:32.835Z,6.81
2023-04-12T02:22:02.670Z,6.81
2023-04-12T02:24:32.241Z,6.81
2023-04-12T02:27:01.564Z,6.80
2023-04-12T02:29:31.456Z,6.80
2023-04-12T02:32:00.779Z,6.81
2023-04-12T02:34:31.999Z,6.80
2023-04-12T02:37:04.358Z,6.78
2023-04-12T02:39:35.936Z,6.79
2023-04-12T02:42:06.742Z,6.78
2023-04-12T02:44:36.365Z,6.80
2023-04-12T02:47:07.612Z,6.80
2023-04-12T02:49:37.406Z,6.79
2023-04-12T02:52:07.334Z,6.77
2023-04-12T02:54:38.303Z,6.77
2023-04-12T02:57:08.391Z,6.79
2023-04-12T02:59:39.929Z,6.77
2023-04-12T03:02:14.013Z,6.75
2023-04-12T03:04:45.088Z,6.77
2023-04-12T03:07:17.757Z,6.76
2023-04-12T03:09:50.059Z,6.75
2023-04-12T03:12:21.182Z,6.75
2023-04-12T03:14:58.303Z,6.73
2023-04-12T03:17:28.257Z,6.76
2023-04-12T03:19:59.139Z,6.73
2023-04-12T03:22:28.857Z,6.74
2023-04-12T03:24:59.946Z,6.74
2023-04-12T03:27:29.665Z,6.74
2023-04-12T03:29:59.594Z,6.75
2023-04-12T03:32:28.966Z,6.74
2023-04-12T03:34:58.580Z,6.75
2023-04-12T03:37:28.564Z,6.77
2023-04-12T03:39:58.723Z,6.77
2023-04-12T03:42:33.478Z,6.75
2023-04-12T03:44:59.910Z,6.75
2023-04-12T03:47:29.634Z,6.76
2023-04-12T03:50:11.581Z,6.79
2023-04-12T03:52:38.170Z,6.78
2023-04-12T03:55:08.831Z,6.80
2023-04-12T03:57:38.867Z,6.78
2023-04-12T04:00:10.017Z,6.78
2023-04-12T04:02:50.446Z,6.79
2023-04-12T04:05:21.111Z,6.81
2023-04-12T04:07:51.226Z,6.80
2023-04-12T04:10:21.131Z,6.80
2023-04-12T04:12:50.733Z,6.83
2023-04-12T04:15:20.146Z,6.81
2023-04-12T04:17:49.719Z,6.83
2023-04-12T04:20:21.020Z,6.85
2023-04-12T04:22:53.682Z,6.86
2023-04-12T04:25:26.296Z,6.87
2023-04-12T04:27:55.712Z,6.88
2023-04-12T04:30:26.815Z,6.93
2023-04-12T04:32:57.114Z,6.93
2023-04-12T04:35:27.798Z,6.96
2023-04-12T04:38:00.618Z,6.90
2023-04-12T04:40:30.676Z,6.94
2023-04-12T04:42:59.985Z,6.92
2023-04-12T04:45:31.103Z,6.92
2023-04-12T04:48:01.411Z,6.92
2023-04-12T04:50:31.292Z,6.93
2023-04-12T04:53:00.740Z,6.96
2023-04-12T04:55:31.079Z,6.97
2023-04-12T04:58:00.421Z,6.98
2023-04-12T05:00:30.675Z,6.97
2023-04-12T05:03:01.479Z,6.98
2023-04-12T05:05:30.917Z,6.97
2023-04-12T05:08:04.764Z,7.02
2023-04-12T05:10:35.047Z,7.02
2023-04-12T05:13:04.670Z,7.02
2023-04-12T05:15:34.252Z,7.04
2023-04-12T05:18:03.977Z,7.10
2023-04-12T05:20:33.419Z,7.08
2023-04-12T05:23:02.779Z,7.09
2023-04-12T05:25:33.130Z,7.10
2023-04-12T05:28:04.195Z,7.14
2023-04-12T05:30:34.142Z,7.12
2023-04-12T05:33:04.973Z,7.14
2023-04-12T05:35:35.487Z,7.18
2023-04-12T05:38:04.967Z,7.18
2023-04-12T05:40:36.445Z,7.21
2023-04-12T05:43:06.236Z,7.20
2023-04-12T05:45:35.533Z,7.26
2023-04-12T05:48:05.315Z,7.26
2023-04-12T05:50:35.312Z,7.29
2023-04-12T05:53:05.285Z,7.29
2023-04-12T05:55:37.314Z,7.31
2023-04-12T05:58:06.143Z,7.34
2023-04-12T06:00:36.449Z,7.33
2023-04-12T06:03:06.445Z,7.37
2023-04-12T06:05:35.907Z,7.37
2023-04-12T06:08:05.724Z,7.41
2023-04-12T06:10:35.817Z,7.43
2023-04-12T06:13:05.822Z,7.48
2023-04-12T06:15:36.242Z,7.53
2023-04-12T06:18:07.657Z,7.55
2023-04-12T06:20:40.649Z,7.58
2023-04-12T06:23:10.011Z,7.57
2023-04-12T06:25:39.261Z,7.58
2023-04-12T06:28:08.749Z,7.65
2023-04-12T06:30:39.899Z,7.67
2023-04-12T06:33:09.371Z,7.74
2023-04-12T06:35:39.228Z,7.73
2023-04-12T06:38:08.827Z,7.73
2023-04-12T06:40:38.299Z,7.75
2023-04-12T06:43:07.677Z,7.77
2023-04-12T06:45:37.120Z,7.76
2023-04-12T06:48:07.200Z,7.87
2023-04-12T06:50:36.776Z,7.93
2023-04-12T06:53:06.277Z,7.92
2023-04-12T06:55:36.017Z,7.96
2023-04-12T06:58:05.472Z,7.97
2023-04-12T07:00:35.452Z,7.93
2023-04-12T07:03:05.235Z,7.91
2023-04-12T07:05:34.617Z,7.92
2023-04-12T07:08:04.542Z,7.92
2023-04-12T07:10:33.812Z,7.90
2023-04-12T07:13:04.711Z,7.88
2023-04-12T07:15:34.349Z,7.86
2023-04-12T07:18:04.104Z,7.91
2023-04-12T07:20:33.510Z,7.96
2023-04-12T07:23:02.783Z,7.96
2023-04-12T07:25:32.034Z,7.88
2023-04-12T07:28:01.352Z,7.92
2023-04-12T07:30:30.642Z,8.03
2023-04-12T07:33:12.278Z,8.11
2023-04-12T07:35:35.631Z,8.26
2023-04-12T07:38:05.198Z,8.45
2023-04-12T07:40:34.566Z,8.53
2023-04-12T07:43:04.263Z,8.72
2023-04-12T07:45:33.555Z,8.90
2023-04-12T07:48:03.713Z,9.41
2023-04-12T07:50:33.651Z,9.45
2023-04-12T07:53:22.066Z,9.66
2023-04-12T07:55:51.763Z,9.53
2023-04-12T07:58:22.772Z,9.47
2023-04-12T08:00:52.185Z,9.59
2023-04-12T08:03:21.555Z,9.69
2023-04-12T08:05:52.621Z,10.20
2023-04-12T08:08:23.130Z,10.34
2023-04-12T08:10:53.637Z,10.33
2023-04-12T08:13:23.008Z,10.07
2023-04-12T08:15:52.489Z,9.97
2023-04-12T08:18:21.892Z,9.96
2023-04-12T08:20:51.179Z,9.71
2023-04-12T08:23:20.837Z,9.77
2023-04-12T08:25:50.087Z,9.51
2023-04-12T08:28:19.370Z,9.45
2023-04-12T08:30:48.619Z,9.85
2023-04-12T08:33:18.557Z,10.11
2023-04-12T08:35:48.101Z,10.15
2023-04-12T08:38:17.394Z,10.65
2023-04-12T08:40:47.357Z,10.75
2023-04-12T08:43:19.157Z,10.78
2023-04-12T08:45:49.083Z,10.94
2023-04-12T08:48:18.820Z,10.91
2023-04-12T08:50:50.497Z,10.61
2023-04-12T08:53:20.004Z,10.84
2023-04-12T08:55:49.652Z,10.97
2023-04-12T08:58:18.920Z,10.97
2023-04-12T09:00:48.703Z,11.11
2023-04-12T09:03:18.387Z,11.12
2023-04-12T09:05:47.840Z,10.78
2023-04-12T09:08:17.889Z,10.50
2023-04-12T09:10:47.466Z,10.63
2023-04-12T09:13:16.765Z,10.60
2023-04-12T09:15:52.046Z,10.54
2023-04-12T09:18:23.195Z,10.56
2023-04-12T09:20:52.689Z,10.56
2023-04-12T09:23:27.132Z,10.60
2023-04-12T09:25:56.484Z,10.39
2023-04-12T09:28:27.808Z,10.67
2023-04-12T09:30:59.637Z,10.89
2023-04-12T09:33:41.545Z,11.06
2023-04-12T09:36:13.144Z,11.56
2023-04-12T09:38:44.003Z,11.96
2023-04-12T09:41:26.891Z,12.14
2023-04-12T09:43:53.573Z,12.42
2023-04-12T09:46:23.439Z,12.77
2023-04-12T09:48:59.378Z,13.09
2023-04-12T09:51:32.941Z,12.63
2023-04-12T09:54:04.266Z,13.24
2023-04-12T09:56:35.781Z,12.22
2023-04-12T09:59:07.471Z,12.22
2023-04-12T10:01:41.201Z,12.08
2023-04-12T10:04:11.303Z,13.57
2023-04-12T10:06:41.960Z,14.45
2023-04-12T10:09:11.786Z,14.20
2023-04-12T10:11:42.236Z,13.37
2023-04-12T10:14:11.903Z,13.20
2023-04-12T10:16:42.376Z,13.65
2023-04-12T10:19:11.853Z,13.45
2023-04-12T10:21:41.542Z,13.07
2023-04-12T10:24:11.169Z,12.73
2023-04-12T10:26:43.772Z,14.61
2023-04-12T10:29:37.459Z,15.67
2023-04-12T10:32:26.101Z,14.73
2023-04-12T10:34:58.846Z,13.41
2023-04-12T10:38:00.500Z,13.32
2023-04-12T10:40:31.681Z,14.41
2023-04-12T10:43:27.072Z,15.15
2023-04-12T10:45:57.564Z,14.76
2023-04-12T10:48:40.502Z,14.29
2023-04-12T10:51:24.867Z,14.00
2023-04-12T10:54:10.779Z,13.62
2023-04-12T10:56:44.702Z,12.89
2023-04-12T10:59:57.482Z,13.41
2023-04-12T11:02:27.534Z,13.20
2023-04-12T11:05:13.549Z,12.04
2023-04-12T11:08:01.988Z,12.26
2023-04-12T11:10:49.261Z,11.77
2023-04-12T11:13:23.244Z,12.06
2023-04-12T11:15:59.072Z,11.29
2023-04-12T11:18:28.433Z,11.52
2023-04-12T11:20:58.894Z,11.60
2023-04-12T11:23:28.219Z,11.56
2023-04-12T11:25:57.978Z,11.62
2023-04-12T11:28:30.486Z,11.99
2023-04-12T11:30:58.738Z,11.67
2023-04-12T11:33:40.568Z,11.74
2023-04-12T11:36:14.783Z,11.74
2023-04-12T11:38:46.212Z,11.71
2023-04-12T11:41:17.777Z,11.93
2023-04-12T11:43:47.267Z,11.71
2023-04-12T11:46:18.654Z,11.85
2023-04-12T11:48:48.017Z,11.52
2023-04-12T11:51:22.002Z,11.41
2023-04-12T11:53:57.049Z,10.39
2023-04-12T11:56:27.600Z,10.13
2023-04-12T11:58:56.855Z,9.88
2023-04-12T12:01:27.881Z,9.73
2023-04-12T12:03:58.157Z,9.40
2023-04-12T12:06:28.671Z,9.37
2023-04-12T12:08:58.498Z,9.33
2023-04-12T12:11:28.130Z,9.36
2023-04-12T12:13:58.057Z,9.29
2023-04-12T12:16:29.539Z,9.58
2023-04-12T12:18:59.259Z,9.85
2023-04-12T12:21:28.783Z,9.88
2023-04-12T12:23:58.902Z,8.94
2023-04-12T12:26:30.492Z,7.86
2023-04-12T12:29:01.006Z,7.47
2023-04-12T12:31:30.800Z,7.00
2023-04-12T12:34:07.329Z,6.57
2023-04-12T12:36:38.135Z,6.37
2023-04-12T12:39:12.222Z,6.55
2023-04-12T12:41:41.758Z,7.15
2023-04-12T12:44:12.584Z,7.77
2023-04-12T12:49:13.151Z,8.60
2023-04-12T12:51:43.252Z,8.71
2023-04-12T12:54:12.534Z,8.82
2023-04-12T12:56:42.172Z,8.79
2023-04-12T12:59:11.661Z,8.98
2023-04-12T13:01:41.295Z,9.11
2023-04-12T13:04:11.273Z,9.72
2023-04-12T13:06:40.997Z,10.96
2023-04-12T13:09:10.258Z,11.62
2023-04-12T13:11:39.675Z,11.38
2023-04-12T13:14:09.185Z,12.63
2023-04-12T13:16:38.621Z,12.29
2023-04-12T13:19:08.291Z,12.05
2023-04-12T13:21:37.955Z,12.86
2023-04-12T13:24:08.123Z,11.94
2023-04-12T13:26:37.728Z,11.76
2023-04-12T13:29:07.078Z,12.61
2023-04-12T13:31:36.359Z,12.36
2023-04-12T13:34:06.128Z,11.61
2023-04-12T13:36:35.538Z,11.12
2023-04-12T13:39:04.956Z,11.91
2023-04-12T13:41:34.278Z,12.57
2023-04-12T13:44:04.398Z,12.16
2023-04-12T13:46:33.719Z,10.88
2023-04-12T13:49:03.142Z,10.49
2023-04-12T13:51:33.021Z,9.98
2023-04-12T13:54:02.708Z,9.40
2023-04-12T13:56:32.132Z,9.28
2023-04-12T13:59:02.406Z,9.20
2023-04-12T14:01:31.771Z,8.49
2023-04-12T14:04:01.284Z,8.22
2023-04-12T14:06:31.728Z,8.36
2023-04-12T14:09:01.526Z,8.61
2023-04-12T14:11:30.994Z,8.82
2023-04-12T14:14:00.499Z,9.13
2023-04-12T14:16:30.003Z,9.05
2023-04-12T14:18:59.422Z,9.78
2023-04-12T14:21:29.362Z,10.43
2023-04-12T14:23:59.011Z,11.53
2023-04-12T14:26:28.530Z,11.49
2023-04-12T14:28:58.162Z,11.29
2023-04-12T14:31:27.678Z,10.99
2023-04-12T14:33:57.363Z,11.34
2023-04-12T14:36:27.689Z,11.08
2023-04-12T14:38:57.451Z,11.02
2023-04-12T14:41:27.017Z,10.78
2023-04-12T14:43:56.555Z,10.37
2023-04-12T14:46:28.163Z,10.33
2023-04-12T14:48:59.561Z,10.77
2023-04-12T14:51:30.266Z,10.87
2023-04-12T14:53:59.964Z,11.11
2023-04-12T14:56:31.343Z,10.64
2023-04-12T14:59:00.732Z,10.67
2023-04-12T15:01:30.416Z,10.43
2023-04-12T15:04:01.712Z,10.54
2023-04-12T15:06:33.030Z,10.34
2023-04-12T15:09:06.441Z,10.18
2023-04-12T15:11:35.756Z,10.59
2023-04-12T15:14:06.687Z,10.54
2023-04-12T15:16:36.129Z,11.51
2023-04-12T15:19:12.156Z,11.51
2023-04-12T15:21:36.732Z,12.12
2023-04-12T15:24:06.293Z,11.78
2023-04-12T15:26:39.308Z,12.51
2023-04-12T15:29:09.646Z,12.56
2023-04-12T15:31:38.933Z,12.68
2023-04-12T15:34:08.472Z,12.65
2023-04-12T15:36:38.734Z,12.28
2023-04-12T15:39:08.172Z,11.89
2023-04-12T15:41:42.706Z,11.83
2023-04-12T15:44:13.486Z,11.69
2023-04-12T15:46:43.887Z,12.46
2023-04-12T15:49:13.297Z,12.47
2023-04-12T15:51:43.079Z,13.07
2023-04-12T15:54:12.335Z,13.02
2023-04-12T15:56:43.130Z,12.59
2023-04-12T15:59:12.383Z,12.11
2023-04-12T16:01:41.889Z,12.22
2023-04-12T16:04:11.401Z,12.65
2023-04-12T16:06:41.035Z,12.30
2023-04-12T16:09:12.128Z,12.80
2023-04-12T16:11:43.078Z,13.16
2023-04-12T16:14:12.322Z,12.90
2023-04-12T16:16:41.883Z,12.74
2023-04-12T16:19:11.214Z,12.95
2023-04-12T16:21:44.589Z,13.12
2023-04-12T16:24:14.173Z,12.88
2023-04-12T16:26:44.637Z,12.41
2023-04-12T16:29:13.880Z,12.24
2023-04-12T16:31:43.357Z,12.63
2023-04-12T16:34:12.781Z,12.47
2023-04-12T16:36:42.962Z,12.71
2023-04-12T16:39:13.336Z,12.74
2023-04-12T16:41:42.633Z,13.01
2023-04-12T16:44:11.895Z,13.00
2023-04-12T16:46:41.440Z,12.61
2023-04-12T16:49:12.044Z,12.83
2023-04-12T16:51:41.982Z,12.42
2023-04-12T16:54:11.453Z,12.36
2023-04-12T16:56:41.733Z,11.70
2023-04-12T16:59:10.976Z,11.43
2023-04-12T17:01:40.412Z,11.30
2023-04-12T17:04:09.835Z,10.96
2023-04-12T17:06:41.511Z,10.86
2023-04-12T17:09:10.881Z,10.70
2023-04-12T17:11:40.611Z,10.50
2023-04-12T17:14:09.923Z,10.45
2023-04-12T17:16:39.435Z,10.44
2023-04-12T17:19:10.545Z,10.37
2023-04-12T17:21:42.204Z,10.41
2023-04-12T17:24:11.898Z,10.39
2023-04-12T17:26:42.019Z,10.44
2023-04-12T17:29:11.448Z,10.49
2023-04-12T17:31:41.856Z,10.39
2023-04-12T17:34:11.148Z,10.30
2023-04-12T17:36:42.085Z,10.24
2023-04-12T17:39:11.480Z,10.18
2023-04-12T17:41:41.199Z,10.05
2023-04-12T17:44:10.852Z,9.92
2023-04-12T17:46:40.520Z,9.80
2023-04-12T17:49:10.682Z,9.70
2023-04-12T17:51:40.318Z,9.58
2023-04-12T17:54:09.585Z,9.47
2023-04-12T17:56:39.010Z,9.35
2023-04-12T17:59:09.906Z,9.22
2023-04-12T18:01:39.281Z,9.19
2023-04-12T18:04:09.347Z,9.12
2023-04-12T18:06:40.190Z,9.02
2023-04-12T18:09:13.105Z,8.96
2023-04-12T18:11:43.410Z,8.80
2023-04-12T18:14:12.817Z,8.85
2023-04-12T18:16:42.370Z,8.77
2023-04-12T18:19:13.401Z,8.73
2023-04-12T18:21:44.784Z,8.64
2023-04-12T18:24:14.721Z,8.59
2023-04-12T18:26:45.275Z,8.51
2023-04-12T18:29:16.769Z,8.34
2023-04-12T18:31:46.220Z,8.27
2023-04-12T18:34:17.334Z,8.27
2023-04-12T18:36:47.707Z,8.28
2023-04-12T18:39:17.291Z,8.22
2023-04-12T18:41:46.621Z,8.13
2023-04-12T18:44:17.783Z,8.01
2023-04-12T18:46:47.746Z,7.95
2023-04-12T18:49:17.058Z,7.85
2023-04-12T18:51:46.874Z,7.89
2023-04-12T18:54:17.667Z,8.02
2023-04-12T18:56:46.986Z,8.02
2023-04-12T18:59:18.006Z,7.89
2023-04-12T19:01:47.534Z,7.92
2023-04-12T19:04:18.068Z,7.93
2023-04-12T19:06:47.564Z,7.89
2023-04-12T19:09:17.076Z,7.81
2023-04-12T19:11:46.890Z,7.76
2023-04-12T19:14:16.533Z,7.74
2023-04-12T19:16:46.176Z,7.83
2023-04-12T19:19:16.794Z,7.74
2023-04-12T19:21:46.501Z,7.67
2023-04-12T19:24:16.553Z,7.57
2023-04-12T19:26:47.617Z,7.46
2023-04-12T19:29:19.340Z,7.41
2023-04-12T19:31:49.205Z,7.38
2023-04-12T19:34:19.181Z,7.33
2023-04-12T19:36:49.036Z,7.34
2023-04-12T19:39:20.011Z,7.29
2023-04-12T19:41:49.542Z,7.24
2023-04-12T19:44:19.174Z,7.21
2023-04-12T19:46:48.492Z,7.16
2023-04-12T19:49:18.761Z,7.09
2023-04-12T19:51:48.364Z,7.12
2023-04-12T19:54:18.945Z,7.07
2023-04-12T19:56:52.681Z,7.04
2023-04-12T19:59:23.726Z,7.07
2023-04-12T20:01:55.165Z,7.10
2023-04-12T20:04:26.530Z,7.02
2023-04-12T20:06:55.918Z,7.02
2023-04-12T20:09:26.235Z,6.98
2023-04-12T20:11:56.586Z,6.95
2023-04-12T20:14:27.094Z,6.92
2023-04-12T20:16:56.997Z,6.91
2023-04-12T20:19:27.979Z,6.85
2023-04-12T20:21:58.894Z,6.86
2023-04-12T20:24:30.136Z,6.77
2023-04-12T20:26:59.586Z,6.70
2023-04-12T20:29:31.830Z,6.63
2023-04-12T20:32:02.367Z,6.59
2023-04-12T20:34:31.922Z,6.61
2023-04-12T20:37:01.321Z,6.54
2023-04-12T20:39:31.761Z,6.55
2023-04-12T20:42:01.336Z,6.56
2023-04-12T20:44:30.757Z,6.55
2023-04-12T20:47:00.350Z,6.55
2023-04-12T20:49:31.131Z,6.54
2023-04-12T20:52:00.445Z,6.56
2023-04-12T20:54:31.915Z,6.61
2023-04-12T20:57:04.725Z,6.56
2023-04-12T20:59:36.078Z,6.55
2023-04-12T21:02:05.457Z,6.52
2023-04-12T21:04:36.757Z,6.53
2023-04-12T21:07:06.174Z,6.56
2023-04-12T21:09:35.518Z,6.56
2023-04-12T21:12:05.845Z,6.56
2023-04-12T21:14:36.047Z,6.61
2023-04-12T21:17:07.381Z,6.65
2023-04-12T21:19:41.286Z,6.71
2023-04-12T21:22:10.551Z,6.78
2023-04-12T21:24:39.831Z,6.81
2023-04-12T21:27:09.257Z,6.88
2023-04-12T21:29:47.597Z,6.96
2023-04-12T21:32:17.050Z,6.98
2023-04-12T21:34:47.396Z,6.97
2023-04-12T21:37:16.880Z,6.97
2023-04-12T21:39:46.353Z,6.93
2023-04-12T21:42:15.630Z,6.85
2023-04-12T21:44:45.462Z,6.74
2023-04-12T21:47:14.726Z,6.56
2023-04-12T21:49:43.981Z,6.39
2023-04-12T21:52:13.224Z,6.20
2023-04-12T21:54:42.820Z,5.91
2023-04-12T21:57:12.795Z,5.61
2023-04-12T21:59:43.643Z,5.51
2023-04-12T22:02:15.791Z,5.40
2023-04-12T22:04:45.423Z,5.32
2023-04-12T22:07:16.403Z,5.26
2023-04-12T22:09:46.392Z,5.17
2023-04-12T22:12:18.133Z,5.14
2023-04-12T22:14:47.388Z,5.09
2023-04-12T22:17:18.587Z,5.07
2023-04-12T22:19:48.318Z,5.07
2023-04-12T22:22:17.677Z,5.06
2023-04-12T22:24:46.959Z,5.07
2023-04-12T22:27:16.428Z,5.07
2023-04-12T22:29:45.827Z,5.08
2023-04-12T22:32:15.196Z,5.08
2023-04-12T22:34:45.044Z,5.16
2023-04-12T22:37:15.335Z,5.24
2023-04-12T22:39:46.407Z,5.25
2023-04-12T22:42:17.320Z,5.28
2023-04-12T22:44:46.587Z,5.31
2023-04-12T22:47:16.320Z,5.32
2023-04-12T22:49:49.023Z,5.28
2023-04-12T22:52:18.595Z,5.35
2023-04-12T22:54:48.197Z,5.39
2023-04-12T22:57:17.971Z,5.40
2023-04-12T22:59:47.449Z,5.38
2023-04-12T23:02:16.985Z,5.36
2023-04-12T23:04:48.095Z,5.39
2023-04-12T23:07:17.441Z,5.36
2023-04-12T23:09:47.169Z,5.35
2023-04-12T23:12:16.420Z,5.37
2023-04-12T23:14:45.664Z,5.34
2023-04-12T23:17:17.050Z,5.33
2023-04-12T23:19:46.433Z,5.32
2023-04-12T23:22:17.386Z,5.30
2023-04-12T23:24:48.565Z,5.33
2023-04-12T23:27:18.826Z,5.32
2023-04-12T23:29:49.809Z,5.30
2023-04-12T23:32:19.692Z,5.29
2023-04-12T23:34:50.584Z,5.28
2023-04-12T23:37:19.924Z,5.28
2023-04-12T23:39:49.524Z,5.32
2023-04-12T23:42:18.779Z,5.31
2023-04-12T23:44:48.096Z,5.31
2023-04-12T23:47:17.385Z,5.26
2023-04-12T23:49:47.049Z,5.20
2023-04-12T23:52:19.576Z,5.18
2023-04-12T23:54:48.202Z,5.17
2023-04-12T23:57:17.312Z,5.18
2023-04-12T23:59:46.600Z,5.18
